sensor_id;sensor_type;location;lat;lon;timestamp;P1;durP1;ratioP1;P2;durP2;ratioP2
18190;SDS011;47004;51.366;12.348;2023-06-10T00:00:07;5.07;;;2.90;;
18190;SDS011;47004;51.366;12.348;2023-06-10T00:02:12;4.10;;;2.73;;
18190;SDS011;47004;51.366;12.348;2023-06-10T00:04:16;3.43;;;2.87;;
18190;SDS011;47004;51.366;12.348;2023-06-10T00:06:20;5.17;;;2.80;;
18190;SDS011;47004;51.366;12.348;2023-06-10T00:08:24;3.80;;;2.93;;
18190;SDS011;47004;51.366;12.348;2023-06-10T00:10:26;6.63;;;3.00;;
18190;SDS011;47004;51.366;12.348;2023-06-10T00:12:28;5.57;;;3.23;;
18190;SDS011;47004;51.366;12.348;2023-06-10T00:14:31;6.50;;;3.00;;
18190;SDS011;47004;51.366;12.348;2023-06-10T00:16:33;5.27;;;2.60;;
18190;SDS011;47004;51.366;12.348;2023-06-10T00:18:36;6.23;;;3.00;;
18190;SDS011;47004;51.366;12.348;2023-06-10T00:20:38;5.17;;;3.13;;
18190;SDS011;47004;51.366;12.348;2023-06-10T00:22:42;5.63;;;3.13;;
18190;SDS011;47004;51.366;12.348;2023-06-10T00:24:45;7.50;;;3.30;;
18190;SDS011;47004;51.366;12.348;2023-06-10T00:26:47;4.70;;;2.80;;
18190;SDS011;47004;51.366;12.348;2023-06-10T00:28:51;6.40;;;3.00;;
18190;SDS011;47004;51.366;12.348;2023-06-10T00:30:53;6.33;;;2.90;;
18190;SDS011;47004;51.366;12.348;2023-06-10T00:32:55;7.27;;;3.53;;
18190;SDS011;47004;51.366;12.348;2023-06-10T00:34:57;5.53;;;3.03;;
18190;SDS011;47004;51.366;12.348;2023-06-10T00:36:59;5.33;;;3.23;;
18190;SDS011;47004;51.366;12.348;2023-06-10T00:39:02;8.27;;;3.40;;
18190;SDS011;47004;51.366;12.348;2023-06-10T00:41:05;3.93;;;2.60;;
18190;SDS011;47004;51.366;12.348;2023-06-10T00:43:08;4.27;;;2.83;;
18190;SDS011;47004;51.366;12.348;2023-06-10T00:45:10;7.10;;;3.30;;
18190;SDS011;47004;51.366;12.348;2023-06-10T00:47:12;5.40;;;3.40;;
18190;SDS011;47004;51.366;12.348;2023-06-10T00:49:15;5.97;;;3.43;;
18190;SDS011;47004;51.366;12.348;2023-06-10T00:51:17;7.57;;;3.13;;
18190;SDS011;47004;51.366;12.348;2023-06-10T00:53:20;10.60;;;3.30;;
18190;SDS011;47004;51.366;12.348;2023-06-10T00:55:24;9.43;;;3.13;;
18190;SDS011;47004;51.366;12.348;2023-06-10T00:57:27;5.50;;;3.10;;
18190;SDS011;47004;51.366;12.348;2023-06-10T00:59:29;6.20;;;3.13;;
18190;SDS011;47004;51.366;12.348;2023-06-10T01:01:32;7.23;;;3.90;;
18190;SDS011;47004;51.366;12.348;2023-06-10T01:03:34;4.20;;;3.00;;
18190;SDS011;47004;51.366;12.348;2023-06-10T01:05:37;7.63;;;3.07;;
18190;SDS011;47004;51.366;12.348;2023-06-10T01:07:40;4.77;;;3.53;;
18190;SDS011;47004;51.366;12.348;2023-06-10T01:09:53;7.07;;;3.37;;
18190;SDS011;47004;51.366;12.348;2023-06-10T01:12:05;6.27;;;3.53;;
18190;SDS011;47004;51.366;12.348;2023-06-10T01:14:11;7.27;;;3.73;;
18190;SDS011;47004;51.366;12.348;2023-06-10T01:16:14;8.27;;;4.23;;
18190;SDS011;47004;51.366;12.348;2023-06-10T01:18:16;8.37;;;4.37;;
18190;SDS011;47004;51.366;12.348;2023-06-10T01:20:18;8.47;;;4.10;;
18190;SDS011;47004;51.366;12.348;2023-06-10T01:22:21;5.73;;;3.70;;
18190;SDS011;47004;51.366;12.348;2023-06-10T01:24:26;10.27;;;4.60;;
18190;SDS011;47004;51.366;12.348;2023-06-10T01:26:28;8.60;;;4.53;;
18190;SDS011;47004;51.366;12.348;2023-06-10T01:28:33;7.87;;;4.37;;
18190;SDS011;47004;51.366;12.348;2023-06-10T01:30:43;9.57;;;5.37;;
18190;SDS011;47004;51.366;12.348;2023-06-10T01:32:50;8.60;;;5.20;;
18190;SDS011;47004;51.366;12.348;2023-06-10T01:34:52;9.40;;;4.93;;
18190;SDS011;47004;51.366;12.348;2023-06-10T01:36:57;9.00;;;5.00;;
18190;SDS011;47004;51.366;12.348;2023-06-10T01:39:01;10.70;;;5.23;;
18190;SDS011;47004;51.366;12.348;2023-06-10T01:41:06;9.77;;;5.73;;
18190;SDS011;47004;51.366;12.348;2023-06-10T01:43:08;9.17;;;5.13;;
18190;SDS011;47004;51.366;12.348;2023-06-10T01:45:10;12.23;;;5.67;;
18190;SDS011;47004;51.366;12.348;2023-06-10T01:47:12;10.17;;;5.33;;
18190;SDS011;47004;51.366;12.348;2023-06-10T01:49:14;8.73;;;5.17;;
18190;SDS011;47004;51.366;12.348;2023-06-10T01:51:17;9.40;;;5.07;;
18190;SDS011;47004;51.366;12.348;2023-06-10T01:53:19;9.07;;;4.70;;
18190;SDS011;47004;51.366;12.348;2023-06-10T01:55:22;7.23;;;4.20;;
18190;SDS011;47004;51.366;12.348;2023-06-10T01:57:24;10.77;;;5.83;;
18190;SDS011;47004;51.366;12.348;2023-06-10T01:59:26;8.23;;;4.50;;
18190;SDS011;47004;51.366;12.348;2023-06-10T02:01:28;7.00;;;4.03;;
18190;SDS011;47004;51.366;12.348;2023-06-10T02:03:30;8.70;;;4.43;;
18190;SDS011;47004;51.366;12.348;2023-06-10T02:05:32;9.27;;;4.93;;
18190;SDS011;47004;51.366;12.348;2023-06-10T02:07:34;7.53;;;4.10;;
18190;SDS011;47004;51.366;12.348;2023-06-10T02:09:36;6.27;;;4.00;;
18190;SDS011;47004;51.366;12.348;2023-06-10T02:11:39;8.40;;;4.50;;
18190;SDS011;47004;51.366;12.348;2023-06-10T02:13:41;7.10;;;4.20;;
18190;SDS011;47004;51.366;12.348;2023-06-10T02:15:43;9.13;;;4.23;;
18190;SDS011;47004;51.366;12.348;2023-06-10T02:17:45;6.30;;;4.30;;
18190;SDS011;47004;51.366;12.348;2023-06-10T02:19:49;6.73;;;4.30;;
18190;SDS011;47004;51.366;12.348;2023-06-10T02:21:52;7.50;;;4.23;;
18190;SDS011;47004;51.366;12.348;2023-06-10T02:23:54;7.27;;;4.50;;
18190;SDS011;47004;51.366;12.348;2023-06-10T02:25:56;7.43;;;4.53;;
18190;SDS011;47004;51.366;12.348;2023-06-10T02:28:00;7.10;;;4.23;;
18190;SDS011;47004;51.366;12.348;2023-06-10T02:30:03;8.40;;;3.93;;
18190;SDS011;47004;51.366;12.348;2023-06-10T02:32:07;8.33;;;4.20;;
18190;SDS011;47004;51.366;12.348;2023-06-10T02:34:09;8.90;;;4.07;;
18190;SDS011;47004;51.366;12.348;2023-06-10T02:36:11;7.47;;;4.40;;
18190;SDS011;47004;51.366;12.348;2023-06-10T02:38:15;8.30;;;4.47;;
18190;SDS011;47004;51.366;12.348;2023-06-10T02:40:18;7.13;;;4.30;;
18190;SDS011;47004;51.366;12.348;2023-06-10T02:42:20;6.20;;;3.93;;
18190;SDS011;47004;51.366;12.348;2023-06-10T02:44:23;7.40;;;4.43;;
18190;SDS011;47004;51.366;12.348;2023-06-10T02:46:25;7.33;;;4.60;;
18190;SDS011;47004;51.366;12.348;2023-06-10T02:48:28;6.80;;;3.97;;
18190;SDS011;47004;51.366;12.348;2023-06-10T02:50:30;8.73;;;4.67;;
18190;SDS011;47004;51.366;12.348;2023-06-10T02:52:32;7.63;;;4.30;;
18190;SDS011;47004;51.366;12.348;2023-06-10T02:54:34;9.60;;;4.67;;
18190;SDS011;47004;51.366;12.348;2023-06-10T02:56:36;6.57;;;3.60;;
18190;SDS011;47004;51.366;12.348;2023-06-10T02:58:41;7.83;;;3.80;;
18190;SDS011;47004;51.366;12.348;2023-06-10T03:00:45;6.53;;;4.03;;
18190;SDS011;47004;51.366;12.348;2023-06-10T03:02:47;9.57;;;4.10;;
18190;SDS011;47004;51.366;12.348;2023-06-10T03:04:49;8.60;;;4.37;;
18190;SDS011;47004;51.366;12.348;2023-06-10T03:06:51;8.03;;;4.00;;
18190;SDS011;47004;51.366;12.348;2023-06-10T03:08:53;6.57;;;3.73;;
18190;SDS011;47004;51.366;12.348;2023-06-10T03:10:56;9.60;;;4.50;;
18190;SDS011;47004;51.366;12.348;2023-06-10T03:12:58;10.47;;;4.00;;
18190;SDS011;47004;51.366;12.348;2023-06-10T03:15:00;7.97;;;3.87;;
18190;SDS011;47004;51.366;12.348;2023-06-10T03:17:05;7.07;;;3.83;;
18190;SDS011;47004;51.366;12.348;2023-06-10T03:19:08;6.80;;;3.77;;
18190;SDS011;47004;51.366;12.348;2023-06-10T03:21:10;6.00;;;3.77;;
18190;SDS011;47004;51.366;12.348;2023-06-10T03:23:15;8.17;;;4.10;;
18190;SDS011;47004;51.366;12.348;2023-06-10T03:25:17;9.33;;;3.90;;
18190;SDS011;47004;51.366;12.348;2023-06-10T03:27:20;9.10;;;4.37;;
18190;SDS011;47004;51.366;12.348;2023-06-10T03:29:22;8.63;;;3.97;;
18190;SDS011;47004;51.366;12.348;2023-06-10T03:31:24;8.57;;;3.77;;
18190;SDS011;47004;51.366;12.348;2023-06-10T03:33:27;8.10;;;3.73;;
18190;SDS011;47004;51.366;12.348;2023-06-10T03:35:30;5.50;;;3.90;;
18190;SDS011;47004;51.366;12.348;2023-06-10T03:37:32;7.87;;;4.40;;
18190;SDS011;47004;51.366;12.348;2023-06-10T03:39:34;4.97;;;3.80;;
18190;SDS011;47004;51.366;12.348;2023-06-10T03:41:36;7.90;;;4.30;;
18190;SDS011;47004;51.366;12.348;2023-06-10T03:43:38;6.70;;;3.97;;
18190;SDS011;47004;51.366;12.348;2023-06-10T03:45:40;7.70;;;3.80;;
18190;SDS011;47004;51.366;12.348;2023-06-10T03:47:42;10.60;;;4.50;;
18190;SDS011;47004;51.366;12.348;2023-06-10T03:49:46;7.20;;;3.70;;
18190;SDS011;47004;51.366;12.348;2023-06-10T03:51:48;5.67;;;3.70;;
18190;SDS011;47004;51.366;12.348;2023-06-10T03:53:50;7.00;;;4.37;;
18190;SDS011;47004;51.366;12.348;2023-06-10T03:55:52;5.97;;;3.93;;
18190;SDS011;47004;51.366;12.348;2023-06-10T03:57:54;7.37;;;4.30;;
18190;SDS011;47004;51.366;12.348;2023-06-10T03:59:56;7.27;;;4.40;;
18190;SDS011;47004;51.366;12.348;2023-06-10T04:01:58;7.00;;;4.03;;
18190;SDS011;47004;51.366;12.348;2023-06-10T04:04:00;7.40;;;3.93;;
18190;SDS011;47004;51.366;12.348;2023-06-10T04:06:03;6.80;;;3.90;;
18190;SDS011;47004;51.366;12.348;2023-06-10T04:08:05;9.63;;;4.57;;
18190;SDS011;47004;51.366;12.348;2023-06-10T04:10:08;9.60;;;4.10;;
18190;SDS011;47004;51.366;12.348;2023-06-10T04:12:11;7.13;;;4.10;;
18190;SDS011;47004;51.366;12.348;2023-06-10T04:14:13;6.77;;;4.20;;
18190;SDS011;47004;51.366;12.348;2023-06-10T04:16:15;9.43;;;4.07;;
18190;SDS011;47004;51.366;12.348;2023-06-10T04:18:17;8.70;;;4.30;;
18190;SDS011;47004;51.366;12.348;2023-06-10T04:20:22;7.80;;;3.90;;
18190;SDS011;47004;51.366;12.348;2023-06-10T04:22:25;6.90;;;4.30;;
18190;SDS011;47004;51.366;12.348;2023-06-10T04:24:27;6.77;;;4.20;;
18190;SDS011;47004;51.366;12.348;2023-06-10T04:26:29;8.23;;;4.40;;
18190;SDS011;47004;51.366;12.348;2023-06-10T04:28:31;9.10;;;4.47;;
18190;SDS011;47004;51.366;12.348;2023-06-10T04:30:33;9.07;;;4.33;;
18190;SDS011;47004;51.366;12.348;2023-06-10T04:32:35;13.53;;;5.43;;
18190;SDS011;47004;51.366;12.348;2023-06-10T04:34:37;7.13;;;4.50;;
18190;SDS011;47004;51.366;12.348;2023-06-10T04:36:40;6.80;;;4.40;;
18190;SDS011;47004;51.366;12.348;2023-06-10T04:38:44;9.50;;;5.00;;
18190;SDS011;47004;51.366;12.348;2023-06-10T04:40:46;7.80;;;4.40;;
18190;SDS011;47004;51.366;12.348;2023-06-10T04:42:48;10.20;;;4.97;;
18190;SDS011;47004;51.366;12.348;2023-06-10T04:44:49;9.77;;;4.47;;
18190;SDS011;47004;51.366;12.348;2023-06-10T04:46:51;6.93;;;4.53;;
18190;SDS011;47004;51.366;12.348;2023-06-10T04:48:54;12.73;;;4.57;;
18190;SDS011;47004;51.366;12.348;2023-06-10T04:50:58;6.37;;;4.03;;
18190;SDS011;47004;51.366;12.348;2023-06-10T04:53:00;7.73;;;4.70;;
18190;SDS011;47004;51.366;12.348;2023-06-10T04:55:04;8.23;;;4.70;;
18190;SDS011;47004;51.366;12.348;2023-06-10T04:57:06;8.73;;;4.93;;
18190;SDS011;47004;51.366;12.348;2023-06-10T04:59:08;8.47;;;4.33;;
18190;SDS011;47004;51.366;12.348;2023-06-10T05:01:14;7.93;;;4.63;;
18190;SDS011;47004;51.366;12.348;2023-06-10T05:03:16;9.87;;;5.97;;
18190;SDS011;47004;51.366;12.348;2023-06-10T05:05:18;13.77;;;7.10;;
18190;SDS011;47004;51.366;12.348;2023-06-10T05:07:20;10.73;;;6.30;;
18190;SDS011;47004;51.366;12.348;2023-06-10T05:09:22;10.33;;;5.40;;
18190;SDS011;47004;51.366;12.348;2023-06-10T05:11:26;9.93;;;5.40;;
18190;SDS011;47004;51.366;12.348;2023-06-10T05:13:29;8.73;;;5.63;;
18190;SDS011;47004;51.366;12.348;2023-06-10T05:15:36;10.50;;;5.37;;
18190;SDS011;47004;51.366;12.348;2023-06-10T05:17:38;10.23;;;6.03;;
18190;SDS011;47004;51.366;12.348;2023-06-10T05:19:40;9.97;;;5.57;;
18190;SDS011;47004;51.366;12.348;2023-06-10T05:21:43;9.73;;;5.57;;
18190;SDS011;47004;51.366;12.348;2023-06-10T05:23:48;7.73;;;5.50;;
18190;SDS011;47004;51.366;12.348;2023-06-10T05:25:50;9.43;;;5.80;;
18190;SDS011;47004;51.366;12.348;2023-06-10T05:27:53;9.33;;;5.30;;
18190;SDS011;47004;51.366;12.348;2023-06-10T05:29:55;7.77;;;5.13;;
18190;SDS011;47004;51.366;12.348;2023-06-10T05:31:57;7.80;;;5.40;;
18190;SDS011;47004;51.366;12.348;2023-06-10T05:34:03;10.23;;;5.17;;
18190;SDS011;47004;51.366;12.348;2023-06-10T05:36:05;7.77;;;5.40;;
18190;SDS011;47004;51.366;12.348;2023-06-10T05:38:07;7.83;;;5.57;;
18190;SDS011;47004;51.366;12.348;2023-06-10T05:40:09;9.37;;;5.73;;
18190;SDS011;47004;51.366;12.348;2023-06-10T05:42:12;8.53;;;5.70;;
18190;SDS011;47004;51.366;12.348;2023-06-10T05:44:16;10.33;;;5.70;;
18190;SDS011;47004;51.366;12.348;2023-06-10T05:46:18;10.20;;;5.97;;
18190;SDS011;47004;51.366;12.348;2023-06-10T05:48:21;9.87;;;6.13;;
18190;SDS011;47004;51.366;12.348;2023-06-10T05:50:23;12.20;;;6.23;;
18190;SDS011;47004;51.366;12.348;2023-06-10T05:52:27;13.27;;;6.00;;
18190;SDS011;47004;51.366;12.348;2023-06-10T05:54:29;9.13;;;6.03;;
18190;SDS011;47004;51.366;12.348;2023-06-10T05:56:30;12.83;;;5.50;;
18190;SDS011;47004;51.366;12.348;2023-06-10T05:58:33;11.70;;;6.40;;
18190;SDS011;47004;51.366;12.348;2023-06-10T06:00:36;9.00;;;5.43;;
18190;SDS011;47004;51.366;12.348;2023-06-10T06:02:38;12.00;;;6.63;;
18190;SDS011;47004;51.366;12.348;2023-06-10T06:04:40;11.80;;;6.50;;
18190;SDS011;47004;51.366;12.348;2023-06-10T06:06:42;9.97;;;5.80;;
18190;SDS011;47004;51.366;12.348;2023-06-10T06:08:47;11.93;;;6.30;;
18190;SDS011;47004;51.366;12.348;2023-06-10T06:10:49;9.57;;;5.80;;
18190;SDS011;47004;51.366;12.348;2023-06-10T06:12:53;7.50;;;5.57;;
18190;SDS011;47004;51.366;12.348;2023-06-10T06:14:58;10.93;;;6.03;;
18190;SDS011;47004;51.366;12.348;2023-06-10T06:17:01;12.80;;;6.43;;
18190;SDS011;47004;51.366;12.348;2023-06-10T06:19:03;8.70;;;6.03;;
18190;SDS011;47004;51.366;12.348;2023-06-10T06:21:05;14.00;;;6.30;;
18190;SDS011;47004;51.366;12.348;2023-06-10T06:23:07;11.83;;;6.57;;
18190;SDS011;47004;51.366;12.348;2023-06-10T06:25:10;10.17;;;6.10;;
18190;SDS011;47004;51.366;12.348;2023-06-10T06:27:12;9.10;;;6.17;;
18190;SDS011;47004;51.366;12.348;2023-06-10T06:29:14;11.60;;;6.73;;
18190;SDS011;47004;51.366;12.348;2023-06-10T06:31:16;11.90;;;6.20;;
18190;SDS011;47004;51.366;12.348;2023-06-10T06:33:19;10.93;;;6.50;;
18190;SDS011;47004;51.366;12.348;2023-06-10T06:35:21;11.43;;;6.30;;
18190;SDS011;47004;51.366;12.348;2023-06-10T06:37:23;11.17;;;6.63;;
18190;SDS011;47004;51.366;12.348;2023-06-10T06:39:26;11.07;;;6.87;;
18190;SDS011;47004;51.366;12.348;2023-06-10T06:41:28;9.57;;;6.00;;
18190;SDS011;47004;51.366;12.348;2023-06-10T06:43:30;13.13;;;6.63;;
18190;SDS011;47004;51.366;12.348;2023-06-10T06:45:32;11.87;;;6.27;;
18190;SDS011;47004;51.366;12.348;2023-06-10T06:47:34;10.90;;;6.70;;
18190;SDS011;47004;51.366;12.348;2023-06-10T06:49:37;9.83;;;6.37;;
18190;SDS011;47004;51.366;12.348;2023-06-10T06:51:39;12.27;;;6.60;;
18190;SDS011;47004;51.366;12.348;2023-06-10T06:53:41;11.23;;;6.67;;
18190;SDS011;47004;51.366;12.348;2023-06-10T06:55:44;13.70;;;7.13;;
18190;SDS011;47004;51.366;12.348;2023-06-10T06:57:46;10.57;;;6.33;;
18190;SDS011;47004;51.366;12.348;2023-06-10T06:59:48;9.63;;;6.77;;
18190;SDS011;47004;51.366;12.348;2023-06-10T07:01:50;9.60;;;6.50;;
18190;SDS011;47004;51.366;12.348;2023-06-10T07:03:54;12.33;;;6.30;;
18190;SDS011;47004;51.366;12.348;2023-06-10T07:05:57;9.60;;;6.10;;
18190;SDS011;47004;51.366;12.348;2023-06-10T07:07:59;10.77;;;6.40;;
18190;SDS011;47004;51.366;12.348;2023-06-10T07:10:01;10.53;;;6.67;;
18190;SDS011;47004;51.366;12.348;2023-06-10T07:12:03;11.80;;;7.07;;
18190;SDS011;47004;51.366;12.348;2023-06-10T07:14:06;12.13;;;6.80;;
18190;SDS011;47004;51.366;12.348;2023-06-10T07:16:08;10.10;;;5.97;;
18190;SDS011;47004;51.366;12.348;2023-06-10T07:18:10;10.03;;;6.37;;
18190;SDS011;47004;51.366;12.348;2023-06-10T07:20:12;11.03;;;6.83;;
18190;SDS011;47004;51.366;12.348;2023-06-10T07:22:16;11.63;;;7.07;;
18190;SDS011;47004;51.366;12.348;2023-06-10T07:24:18;12.03;;;6.80;;
18190;SDS011;47004;51.366;12.348;2023-06-10T07:26:21;11.00;;;6.83;;
18190;SDS011;47004;51.366;12.348;2023-06-10T07:28:24;9.73;;;6.80;;
18190;SDS011;47004;51.366;12.348;2023-06-10T07:30:25;11.57;;;7.30;;
18190;SDS011;47004;51.366;12.348;2023-06-10T07:32:27;13.70;;;6.87;;
18190;SDS011;47004;51.366;12.348;2023-06-10T07:34:29;11.90;;;6.90;;
18190;SDS011;47004;51.366;12.348;2023-06-10T07:36:31;13.17;;;7.33;;
18190;SDS011;47004;51.366;12.348;2023-06-10T07:38:35;13.60;;;8.10;;
18190;SDS011;47004;51.366;12.348;2023-06-10T07:40:37;10.47;;;7.37;;
18190;SDS011;47004;51.366;12.348;2023-06-10T07:42:39;11.27;;;7.47;;
18190;SDS011;47004;51.366;12.348;2023-06-10T07:44:42;12.47;;;7.53;;
18190;SDS011;47004;51.366;12.348;2023-06-10T07:46:44;11.50;;;7.30;;
18190;SDS011;47004;51.366;12.348;2023-06-10T07:48:45;11.43;;;7.20;;
18190;SDS011;47004;51.366;12.348;2023-06-10T07:50:47;10.70;;;7.27;;
18190;SDS011;47004;51.366;12.348;2023-06-10T07:52:49;12.27;;;7.30;;
18190;SDS011;47004;51.366;12.348;2023-06-10T07:54:53;11.50;;;7.37;;
18190;SDS011;47004;51.366;12.348;2023-06-10T07:56:55;11.53;;;7.67;;
18190;SDS011;47004;51.366;12.348;2023-06-10T07:58:59;13.03;;;7.70;;
18190;SDS011;47004;51.366;12.348;2023-06-10T08:01:02;12.10;;;7.70;;
18190;SDS011;47004;51.366;12.348;2023-06-10T08:03:04;11.03;;;7.83;;
18190;SDS011;47004;51.366;12.348;2023-06-10T08:05:06;11.43;;;7.13;;
18190;SDS011;47004;51.366;12.348;2023-06-10T08:07:08;11.50;;;7.23;;
18190;SDS011;47004;51.366;12.348;2023-06-10T08:09:10;8.77;;;6.80;;
18190;SDS011;47004;51.366;12.348;2023-06-10T08:11:13;12.03;;;6.97;;
18190;SDS011;47004;51.366;12.348;2023-06-10T08:13:15;13.10;;;7.83;;
18190;SDS011;47004;51.366;12.348;2023-06-10T08:15:17;11.13;;;7.43;;
18190;SDS011;47004;51.366;12.348;2023-06-10T08:17:19;12.33;;;7.70;;
18190;SDS011;47004;51.366;12.348;2023-06-10T08:19:21;10.87;;;7.67;;
18190;SDS011;47004;51.366;12.348;2023-06-10T08:21:23;11.23;;;7.53;;
18190;SDS011;47004;51.366;12.348;2023-06-10T08:23:25;12.33;;;7.50;;
18190;SDS011;47004;51.366;12.348;2023-06-10T08:25:27;10.17;;;7.27;;
18190;SDS011;47004;51.366;12.348;2023-06-10T08:27:30;9.13;;;6.90;;
18190;SDS011;47004;51.366;12.348;2023-06-10T08:29:33;9.70;;;7.47;;
18190;SDS011;47004;51.366;12.348;2023-06-10T08:31:35;11.70;;;7.50;;
18190;SDS011;47004;51.366;12.348;2023-06-10T08:33:37;13.20;;;7.93;;
18190;SDS011;47004;51.366;12.348;2023-06-10T08:35:39;12.60;;;7.70;;
18190;SDS011;47004;51.366;12.348;2023-06-10T08:37:42;11.30;;;7.03;;
18190;SDS011;47004;51.366;12.348;2023-06-10T08:39:44;9.67;;;7.30;;
18190;SDS011;47004;51.366;12.348;2023-06-10T08:41:48;10.13;;;6.77;;
18190;SDS011;47004;51.366;12.348;2023-06-10T08:44:10;10.93;;;7.27;;
18190;SDS011;47004;51.366;12.348;2023-06-10T08:46:19;11.43;;;7.07;;
18190;SDS011;47004;51.366;12.348;2023-06-10T08:48:21;11.83;;;7.20;;
18190;SDS011;47004;51.366;12.348;2023-06-10T08:50:23;10.67;;;7.57;;
18190;SDS011;47004;51.366;12.348;2023-06-10T08:52:28;9.77;;;6.77;;
18190;SDS011;47004;51.366;12.348;2023-06-10T08:54:34;9.17;;;7.13;;
18190;SDS011;47004;51.366;12.348;2023-06-10T08:56:40;10.20;;;6.63;;
18190;SDS011;47004;51.366;12.348;2023-06-10T08:58:42;10.27;;;6.77;;
18190;SDS011;47004;51.366;12.348;2023-06-10T09:00:46;10.63;;;6.97;;
18190;SDS011;47004;51.366;12.348;2023-06-10T09:02:48;13.87;;;7.33;;
18190;SDS011;47004;51.366;12.348;2023-06-10T09:04:51;11.67;;;6.93;;
18190;SDS011;47004;51.366;12.348;2023-06-10T09:06:54;10.57;;;6.80;;
18190;SDS011;47004;51.366;12.348;2023-06-10T09:08:58;8.53;;;6.83;;
18190;SDS011;47004;51.366;12.348;2023-06-10T09:11:01;9.17;;;7.03;;
18190;SDS011;47004;51.366;12.348;2023-06-10T09:13:03;12.80;;;7.30;;
18190;SDS011;47004;51.366;12.348;2023-06-10T09:15:07;10.60;;;7.23;;
18190;SDS011;47004;51.366;12.348;2023-06-10T09:17:13;10.90;;;7.30;;
18190;SDS011;47004;51.366;12.348;2023-06-10T09:19:18;9.63;;;6.80;;
18190;SDS011;47004;51.366;12.348;2023-06-10T09:21:21;10.27;;;7.13;;
18190;SDS011;47004;51.366;12.348;2023-06-10T09:23:23;9.53;;;6.67;;
18190;SDS011;47004;51.366;12.348;2023-06-10T09:25:34;12.23;;;7.43;;
18190;SDS011;47004;51.366;12.348;2023-06-10T09:27:44;9.07;;;6.83;;
18190;SDS011;47004;51.366;12.348;2023-06-10T09:29:51;8.07;;;6.53;;
18190;SDS011;47004;51.366;12.348;2023-06-10T09:31:53;9.13;;;7.03;;
18190;SDS011;47004;51.366;12.348;2023-06-10T09:34:05;9.17;;;6.37;;
18190;SDS011;47004;51.366;12.348;2023-06-10T09:36:08;12.50;;;7.33;;
18190;SDS011;47004;51.366;12.348;2023-06-10T09:38:10;9.57;;;7.10;;
18190;SDS011;47004;51.366;12.348;2023-06-10T09:40:12;8.63;;;6.70;;
18190;SDS011;47004;51.366;12.348;2023-06-10T09:42:18;8.73;;;6.50;;
18190;SDS011;47004;51.366;12.348;2023-06-10T09:44:20;10.73;;;6.87;;
18190;SDS011;47004;51.366;12.348;2023-06-10T09:46:25;11.43;;;7.13;;
18190;SDS011;47004;51.366;12.348;2023-06-10T09:48:34;8.60;;;6.77;;
18190;SDS011;47004;51.366;12.348;2023-06-10T09:50:43;10.83;;;6.53;;
18190;SDS011;47004;51.366;12.348;2023-06-10T09:52:46;8.23;;;6.50;;
18190;SDS011;47004;51.366;12.348;2023-06-10T09:54:48;8.73;;;7.03;;
18190;SDS011;47004;51.366;12.348;2023-06-10T09:56:51;9.57;;;6.80;;
18190;SDS011;47004;51.366;12.348;2023-06-10T09:58:53;10.60;;;6.73;;
18190;SDS011;47004;51.366;12.348;2023-06-10T10:00:55;8.87;;;6.47;;
18190;SDS011;47004;51.366;12.348;2023-06-10T10:02:57;8.03;;;6.37;;
18190;SDS011;47004;51.366;12.348;2023-06-10T10:05:01;8.87;;;6.80;;
18190;SDS011;47004;51.366;12.348;2023-06-10T10:07:06;13.87;;;7.50;;
18190;SDS011;47004;51.366;12.348;2023-06-10T10:09:08;10.83;;;6.63;;
18190;SDS011;47004;51.366;12.348;2023-06-10T10:11:11;9.83;;;6.67;;
18190;SDS011;47004;51.366;12.348;2023-06-10T10:13:13;7.97;;;6.23;;
18190;SDS011;47004;51.366;12.348;2023-06-10T10:15:15;9.93;;;6.57;;
18190;SDS011;47004;51.366;12.348;2023-06-10T10:17:18;8.10;;;6.77;;
18190;SDS011;47004;51.366;12.348;2023-06-10T10:19:25;11.50;;;6.80;;
18190;SDS011;47004;51.366;12.348;2023-06-10T10:21:32;9.33;;;7.13;;
18190;SDS011;47004;51.366;12.348;2023-06-10T10:23:44;9.03;;;7.00;;
18190;SDS011;47004;51.366;12.348;2023-06-10T10:25:53;9.93;;;7.27;;
18190;SDS011;47004;51.366;12.348;2023-06-10T10:27:59;7.73;;;6.93;;
18190;SDS011;47004;51.366;12.348;2023-06-10T10:30:10;9.30;;;7.20;;
18190;SDS011;47004;51.366;12.348;2023-06-10T10:32:14;8.40;;;7.30;;
18190;SDS011;47004;51.366;12.348;2023-06-10T10:34:18;9.13;;;6.80;;
18190;SDS011;47004;51.366;12.348;2023-06-10T10:36:24;11.07;;;7.27;;
18190;SDS011;47004;51.366;12.348;2023-06-10T10:38:27;10.13;;;6.90;;
18190;SDS011;47004;51.366;12.348;2023-06-10T10:40:30;9.13;;;6.90;;
18190;SDS011;47004;51.366;12.348;2023-06-10T10:42:34;7.40;;;6.70;;
18190;SDS011;47004;51.366;12.348;2023-06-10T10:44:37;8.40;;;6.27;;
18190;SDS011;47004;51.366;12.348;2023-06-10T10:46:43;8.37;;;6.30;;
18190;SDS011;47004;51.366;12.348;2023-06-10T10:48:45;7.30;;;5.83;;
18190;SDS011;47004;51.366;12.348;2023-06-10T10:50:55;6.50;;;5.70;;
18190;SDS011;47004;51.366;12.348;2023-06-10T10:52:59;8.90;;;6.20;;
18190;SDS011;47004;51.366;12.348;2023-06-10T10:55:03;9.67;;;6.43;;
18190;SDS011;47004;51.366;12.348;2023-06-10T10:57:15;9.37;;;6.37;;
18190;SDS011;47004;51.366;12.348;2023-06-10T10:59:19;8.30;;;6.70;;
18190;SDS011;47004;51.366;12.348;2023-06-10T11:01:21;8.63;;;6.50;;
18190;SDS011;47004;51.366;12.348;2023-06-10T11:03:27;7.93;;;6.10;;
18190;SDS011;47004;51.366;12.348;2023-06-10T11:05:31;8.73;;;6.70;;
18190;SDS011;47004;51.366;12.348;2023-06-10T11:07:37;8.70;;;6.78;;
18190;SDS011;47004;51.366;12.348;2023-06-10T11:09:39;8.07;;;6.57;;
18190;SDS011;47004;51.366;12.348;2023-06-10T11:11:59;7.55;;;5.50;;
18190;SDS011;47004;51.366;12.348;2023-06-10T11:14:06;7.43;;;5.80;;
18190;SDS011;47004;51.366;12.348;2023-06-10T11:16:10;7.93;;;6.20;;
18190;SDS011;47004;51.366;12.348;2023-06-10T11:18:13;9.43;;;6.80;;
18190;SDS011;47004;51.366;12.348;2023-06-10T11:22:58;9.65;;;6.50;;
18190;SDS011;47004;51.366;12.348;2023-06-10T11:25:00;7.55;;;6.30;;
18190;SDS011;47004;51.366;12.348;2023-06-10T11:27:14;8.60;;;6.57;;
18190;SDS011;47004;51.366;12.348;2023-06-10T11:29:19;6.85;;;5.97;;
18190;SDS011;47004;51.366;12.348;2023-06-10T11:31:21;6.90;;;5.82;;
18190;SDS011;47004;51.366;12.348;2023-06-10T11:33:23;8.70;;;6.10;;
18190;SDS011;47004;51.366;12.348;2023-06-10T11:35:26;10.68;;;6.30;;
18190;SDS011;47004;51.366;12.348;2023-06-10T11:37:28;7.93;;;6.18;;
18190;SDS011;47004;51.366;12.348;2023-06-10T11:39:30;6.72;;;6.00;;
18190;SDS011;47004;51.366;12.348;2023-06-10T11:41:35;6.85;;;6.15;;
18190;SDS011;47004;51.366;12.348;2023-06-10T11:43:38;7.18;;;5.60;;
18190;SDS011;47004;51.366;12.348;2023-06-10T11:45:46;11.85;;;6.72;;
18190;SDS011;47004;51.366;12.348;2023-06-10T11:47:57;7.55;;;5.93;;
18190;SDS011;47004;51.366;12.348;2023-06-10T11:49:59;8.40;;;6.28;;
18190;SDS011;47004;51.366;12.348;2023-06-10T11:52:03;6.30;;;5.70;;
18190;SDS011;47004;51.366;12.348;2023-06-10T11:54:07;9.02;;;5.75;;
18190;SDS011;47004;51.366;12.348;2023-06-10T11:56:13;7.30;;;5.82;;
18190;SDS011;47004;51.366;12.348;2023-06-10T11:58:14;6.63;;;5.93;;
18190;SDS011;47004;51.366;12.348;2023-06-10T12:00:18;7.13;;;5.97;;
18190;SDS011;47004;51.366;12.348;2023-06-10T12:02:22;7.45;;;5.47;;
18190;SDS011;47004;51.366;12.348;2023-06-10T12:04:27;5.82;;;4.85;;
18190;SDS011;47004;51.366;12.348;2023-06-10T12:06:37;5.97;;;5.35;;
18190;SDS011;47004;51.366;12.348;2023-06-10T12:08:41;6.28;;;5.40;;
18190;SDS011;47004;51.366;12.348;2023-06-10T12:10:43;5.85;;;4.65;;